PGT908 LOWW-LTFJ
Flight info
| Callsign | PGT908 |
|---|---|
| Flight time | N/A |
| Altitude | 37000 |
| Route | ADAMA Z648 VEDER DCT ALAMU DCT EPARI DCT TEGRI DCT TIMUR L606 ADORU UM19 IBODU |
| Aircraft | A320/M-SDE3FGHIRWY/LB1 |
Departure
| Time | 2026-04-25 15:00 |
|---|---|
| Airport | Vienna International Airport (LOWW) |
Arrival
| Time | N/A |
|---|---|
| Airport | Istanbul Sabiha Gökçen International Airport (LTFJ) |
| Time | Latitude | Longitude | Altitude | Speed | Heading |
|---|---|---|---|---|---|
| 2026-04-25 14:34 | 48.11773 | 16.56126 | 589 ft | 0 kts | 27° |
| 2026-04-25 14:37 | 48.11773 | 16.56127 | 621 ft | 0 kts | 26° |
| 2026-04-25 14:52 | 48.11759 | 16.56117 | 622 ft | 4 kts | 28° |
| 2026-04-25 14:52 | 48.11736 | 16.56097 | 619 ft | 4 kts | 35° |
| 2026-04-25 14:52 | 48.11722 | 16.56081 | 621 ft | 4 kts | 43° |
| 2026-04-25 14:53 | 48.11704 | 16.56040 | 620 ft | 4 kts | 105° |
| 2026-04-25 14:53 | 48.11705 | 16.56033 | 609 ft | 0 kts | 116° |
| 2026-04-25 14:55 | 48.11705 | 16.56035 | 609 ft | 1 kts | 116° |
| 2026-04-25 14:55 | 48.11693 | 16.56072 | 615 ft | 8 kts | 116° |
| 2026-04-25 14:55 | 48.11661 | 16.56170 | 618 ft | 12 kts | 116° |
| 2026-04-25 14:55 | 48.11593 | 16.56180 | 609 ft | 12 kts | 187° |
| 2026-04-25 14:56 | 48.11538 | 16.56264 | 617 ft | 12 kts | 114° |
| 2026-04-25 14:56 | 48.11502 | 16.56373 | 612 ft | 12 kts | 117° |
| 2026-04-25 14:56 | 48.11467 | 16.56479 | 616 ft | 11 kts | 116° |
| 2026-04-25 14:56 | 48.11434 | 16.56581 | 614 ft | 11 kts | 116° |
| 2026-04-25 14:57 | 48.11401 | 16.56682 | 610 ft | 11 kts | 116° |
| 2026-04-25 14:57 | 48.11361 | 16.56780 | 621 ft | 11 kts | 153° |
| 2026-04-25 14:57 | 48.11299 | 16.56728 | 616 ft | 12 kts | 249° |
| 2026-04-25 14:57 | 48.11293 | 16.56594 | 609 ft | 14 kts | 267° |
| 2026-04-25 14:58 | 48.11276 | 16.56451 | 618 ft | 10 kts | 249° |
| 2026-04-25 14:58 | 48.11283 | 16.56401 | 609 ft | 0 kts | 295° |
| 2026-04-25 14:59 | 48.11286 | 16.56393 | 622 ft | 4 kts | 295° |
| 2026-04-25 14:59 | 48.11372 | 16.56119 | 620 ft | 67 kts | 296° |
| 2026-04-25 14:59 | 48.11679 | 16.55187 | 624 ft | 130 kts | 296° |
| 2026-04-25 14:59 | 48.12043 | 16.54067 | 623 ft | 168 kts | 296° |
| 2026-04-25 15:00 | 48.12382 | 16.52880 | 1136 ft | 163 kts | 283° |
| 2026-04-25 15:00 | 48.12113 | 16.51269 | 1876 ft | 174 kts | 230° |
| 2026-04-25 15:00 | 48.11134 | 16.50143 | 2535 ft | 181 kts | 214° |
| 2026-04-25 15:00 | 48.10005 | 16.49139 | 2931 ft | 199 kts | 216° |
| 2026-04-25 15:01 | 48.08776 | 16.47954 | 3193 ft | 221 kts | 217° |
| 2026-04-25 15:01 | 48.07816 | 16.47274 | 3387 ft | 243 kts | 195° |
| 2026-04-25 15:02 | 48.07123 | 16.47155 | 3560 ft | 252 kts | 176° |
| 2026-04-25 15:02 | 48.06996 | 16.47157 | 3615 ft | 252 kts | 184° |